sensor_id;sensor_type;location;lat;lon;timestamp;pressure;altitude;pressure_sealevel;temperature;humidity
65384;BME280;51986;52.788;41.368;2023-01-26T00:01:53;100562.34;;;-7.97;54.49
65384;BME280;51986;52.788;41.368;2023-01-26T00:04:20;100574.16;;;-7.74;54.56
65384;BME280;51986;52.788;41.368;2023-01-26T00:06:47;100580.22;;;-7.80;53.86
65384;BME280;51986;52.788;41.368;2023-01-26T00:09:14;100567.59;;;-7.65;53.76
65384;BME280;51986;52.788;41.368;2023-01-26T00:11:41;100559.28;;;-7.77;53.83
65384;BME280;51986;52.788;41.368;2023-01-26T00:14:08;100571.91;;;-7.71;53.84
65384;BME280;51986;52.788;41.368;2023-01-26T00:16:35;100575.34;;;-7.60;53.38
65384;BME280;51986;52.788;41.368;2023-01-26T00:19:02;100561.59;;;-7.76;53.37
65384;BME280;51986;52.788;41.368;2023-01-26T00:21:29;100551.09;;;-7.74;53.34
65384;BME280;51986;52.788;41.368;2023-01-26T00:23:56;100586.75;;;-7.73;53.41
65384;BME280;51986;52.788;41.368;2023-01-26T00:26:25;100564.50;;;-7.89;54.16
65384;BME280;51986;52.788;41.368;2023-01-26T00:28:55;100554.50;;;-7.90;53.60
65384;BME280;51986;52.788;41.368;2023-01-26T00:31:26;100553.66;;;-7.96;53.68
65384;BME280;51986;52.788;41.368;2023-01-26T00:33:54;100563.47;;;-7.88;53.31
65384;BME280;51986;52.788;41.368;2023-01-26T00:36:21;100544.25;;;-7.90;53.18
65384;BME280;51986;52.788;41.368;2023-01-26T00:38:48;100542.09;;;-7.99;53.33
65384;BME280;51986;52.788;41.368;2023-01-26T00:41:15;100541.75;;;-7.85;53.21
65384;BME280;51986;52.788;41.368;2023-01-26T00:43:42;100543.94;;;-7.94;52.88
65384;BME280;51986;52.788;41.368;2023-01-26T00:46:11;100532.53;;;-7.86;53.38
65384;BME280;51986;52.788;41.368;2023-01-26T00:48:38;100541.84;;;-7.97;52.78
65384;BME280;51986;52.788;41.368;2023-01-26T00:51:05;100514.22;;;-8.17;53.28
65384;BME280;51986;52.788;41.368;2023-01-26T00:53:34;100525.59;;;-8.08;53.12
65384;BME280;51986;52.788;41.368;2023-01-26T00:56:01;100524.31;;;-8.10;53.09
65384;BME280;51986;52.788;41.368;2023-01-26T00:58:27;100531.50;;;-8.07;53.34
65384;BME280;51986;52.788;41.368;2023-01-26T01:00:55;100528.72;;;-8.06;53.50
65384;BME280;51986;52.788;41.368;2023-01-26T01:03:22;100523.16;;;-7.98;53.21
65384;BME280;51986;52.788;41.368;2023-01-26T01:05:48;100527.19;;;-8.02;53.26
65384;BME280;51986;52.788;41.368;2023-01-26T01:08:16;100532.94;;;-7.94;52.99
65384;BME280;51986;52.788;41.368;2023-01-26T01:10:42;100542.72;;;-7.91;53.22
65384;BME280;51986;52.788;41.368;2023-01-26T01:13:09;100517.19;;;-8.03;53.00
65384;BME280;51986;52.788;41.368;2023-01-26T01:15:38;100503.22;;;-7.96;53.20
65384;BME280;51986;52.788;41.368;2023-01-26T01:18:05;100510.91;;;-7.96;52.69
65384;BME280;51986;52.788;41.368;2023-01-26T01:20:32;100505.91;;;-7.85;52.15
65384;BME280;51986;52.788;41.368;2023-01-26T01:22:59;100539.59;;;-7.93;52.79
65384;BME280;51986;52.788;41.368;2023-01-26T01:25:26;100522.56;;;-8.05;52.70
65384;BME280;51986;52.788;41.368;2023-01-26T01:27:53;100521.81;;;-8.05;52.71
65384;BME280;51986;52.788;41.368;2023-01-26T01:30:20;100519.50;;;-8.02;52.72
65384;BME280;51986;52.788;41.368;2023-01-26T01:32:47;100513.03;;;-7.87;52.50
65384;BME280;51986;52.788;41.368;2023-01-26T01:35:14;100497.53;;;-7.98;52.79
65384;BME280;51986;52.788;41.368;2023-01-26T01:37:41;100529.91;;;-7.91;52.75
65384;BME280;51986;52.788;41.368;2023-01-26T01:40:11;100500.09;;;-7.98;51.77
65384;BME280;51986;52.788;41.368;2023-01-26T01:42:45;100482.13;;;-8.03;52.27
65384;BME280;51986;52.788;41.368;2023-01-26T01:47:54;100497.13;;;-8.11;52.28
65384;BME280;51986;52.788;41.368;2023-01-26T01:50:24;100494.66;;;-8.06;52.40
65384;BME280;51986;52.788;41.368;2023-01-26T01:52:53;100495.28;;;-7.94;51.77
65384;BME280;51986;52.788;41.368;2023-01-26T01:55:22;100499.53;;;-8.05;52.29
65384;BME280;51986;52.788;41.368;2023-01-26T01:57:55;100507.78;;;-7.98;52.30
65384;BME280;51986;52.788;41.368;2023-01-26T02:00:23;100503.59;;;-7.87;52.26
65384;BME280;51986;52.788;41.368;2023-01-26T02:03:08;100529.47;;;-7.83;51.79
65384;BME280;51986;52.788;41.368;2023-01-26T02:05:56;100502.25;;;-7.89;51.69
65384;BME280;51986;52.788;41.368;2023-01-26T02:08:32;100491.19;;;-7.95;52.08
65384;BME280;51986;52.788;41.368;2023-01-26T02:11:04;100510.72;;;-7.89;52.01
65384;BME280;51986;52.788;41.368;2023-01-26T02:13:33;100493.44;;;-7.99;51.77
65384;BME280;51986;52.788;41.368;2023-01-26T02:16:02;100484.94;;;-8.04;52.04
65384;BME280;51986;52.788;41.368;2023-01-26T02:18:30;100510.59;;;-7.99;52.47
65384;BME280;51986;52.788;41.368;2023-01-26T02:21:02;100473.50;;;-7.97;52.09
65384;BME280;51986;52.788;41.368;2023-01-26T02:26:31;100431.47;;;-8.44;52.21
65384;BME280;51986;52.788;41.368;2023-01-26T02:29:01;100451.38;;;-8.30;52.70
65384;BME280;51986;52.788;41.368;2023-01-26T02:31:29;100451.47;;;-8.41;52.53
65384;BME280;51986;52.788;41.368;2023-01-26T02:33:57;100454.19;;;-8.26;52.90
65384;BME280;51986;52.788;41.368;2023-01-26T02:36:27;100458.59;;;-8.22;52.52
65384;BME280;51986;52.788;41.368;2023-01-26T02:41:51;100449.25;;;-8.33;53.34
65384;BME280;51986;52.788;41.368;2023-01-26T02:44:21;100456.75;;;-8.26;53.01
65384;BME280;51986;52.788;41.368;2023-01-26T02:46:48;100442.91;;;-8.30;52.41
65384;BME280;51986;52.788;41.368;2023-01-26T02:49:16;100459.31;;;-8.26;52.25
65384;BME280;51986;52.788;41.368;2023-01-26T02:51:43;100458.59;;;-8.22;52.40
65384;BME280;51986;52.788;41.368;2023-01-26T02:54:09;100444.50;;;-8.24;52.16
65384;BME280;51986;52.788;41.368;2023-01-26T02:56:36;100472.19;;;-8.21;52.15
65384;BME280;51986;52.788;41.368;2023-01-26T02:59:03;100442.81;;;-8.35;52.09
65384;BME280;51986;52.788;41.368;2023-01-26T03:01:30;100441.78;;;-8.39;52.33
65384;BME280;51986;52.788;41.368;2023-01-26T03:03:58;100428.66;;;-8.43;52.57
65384;BME280;51986;52.788;41.368;2023-01-26T03:06:25;100447.81;;;-8.45;52.10
65384;BME280;51986;52.788;41.368;2023-01-26T03:08:52;100441.56;;;-8.55;52.50
65384;BME280;51986;52.788;41.368;2023-01-26T03:11:21;100440.03;;;-8.56;52.33
65384;BME280;51986;52.788;41.368;2023-01-26T03:13:48;100440.72;;;-8.60;52.61
65384;BME280;51986;52.788;41.368;2023-01-26T03:16:15;100443.91;;;-8.70;52.52
65384;BME280;51986;52.788;41.368;2023-01-26T03:18:42;100448.50;;;-8.72;52.74
65384;BME280;51986;52.788;41.368;2023-01-26T03:21:13;100449.41;;;-8.61;52.62
65384;BME280;51986;52.788;41.368;2023-01-26T03:23:40;100464.25;;;-8.63;52.83
65384;BME280;51986;52.788;41.368;2023-01-26T03:26:12;100452.56;;;-8.54;52.47
65384;BME280;51986;52.788;41.368;2023-01-26T03:28:39;100446.34;;;-8.80;52.66
65384;BME280;51986;52.788;41.368;2023-01-26T03:31:06;100453.69;;;-8.67;52.84
65384;BME280;51986;52.788;41.368;2023-01-26T03:33:33;100445.94;;;-8.72;52.58
65384;BME280;51986;52.788;41.368;2023-01-26T03:36:00;100437.25;;;-8.71;52.81
65384;BME280;51986;52.788;41.368;2023-01-26T03:38:28;100447.13;;;-8.80;53.12
65384;BME280;51986;52.788;41.368;2023-01-26T03:40:57;100447.50;;;-8.71;52.67
65384;BME280;51986;52.788;41.368;2023-01-26T03:43:24;100445.31;;;-8.79;52.71
65384;BME280;51986;52.788;41.368;2023-01-26T03:45:51;100424.94;;;-8.74;52.95
65384;BME280;51986;52.788;41.368;2023-01-26T03:48:21;100460.66;;;-8.62;52.49
65384;BME280;51986;52.788;41.368;2023-01-26T03:50:48;100457.56;;;-8.64;52.84
65384;BME280;51986;52.788;41.368;2023-01-26T03:53:18;100444.31;;;-8.61;52.58
65384;BME280;51986;52.788;41.368;2023-01-26T03:55:45;100445.94;;;-8.72;52.59
65384;BME280;51986;52.788;41.368;2023-01-26T03:58:12;100441.28;;;-8.75;52.40
65384;BME280;51986;52.788;41.368;2023-01-26T04:00:39;100437.84;;;-8.64;52.34
65384;BME280;51986;52.788;41.368;2023-01-26T04:03:06;100443.16;;;-8.70;52.60
65384;BME280;51986;52.788;41.368;2023-01-26T04:05:34;100444.25;;;-8.83;52.58
65384;BME280;51986;52.788;41.368;2023-01-26T04:08:03;100441.63;;;-8.88;52.29
65384;BME280;51986;52.788;41.368;2023-01-26T04:10:30;100451.56;;;-8.92;52.29
65384;BME280;51986;52.788;41.368;2023-01-26T04:12:59;100456.97;;;-8.88;52.49
65384;BME280;51986;52.788;41.368;2023-01-26T04:15:26;100454.72;;;-8.85;52.61
65384;BME280;51986;52.788;41.368;2023-01-26T04:17:53;100461.31;;;-8.89;52.57
65384;BME280;51986;52.788;41.368;2023-01-26T04:20:20;100484.88;;;-8.87;52.29
65384;BME280;51986;52.788;41.368;2023-01-26T04:22:47;100479.44;;;-8.90;52.85
65384;BME280;51986;52.788;41.368;2023-01-26T04:25:18;100446.59;;;-8.99;52.83
65384;BME280;51986;52.788;41.368;2023-01-26T04:27:45;100459.22;;;-8.92;53.02
65384;BME280;51986;52.788;41.368;2023-01-26T04:30:14;100440.94;;;-9.01;52.67
65384;BME280;51986;52.788;41.368;2023-01-26T04:32:42;100440.53;;;-9.43;53.14
65384;BME280;51986;52.788;41.368;2023-01-26T04:35:10;100457.13;;;-9.29;53.00
65384;BME280;51986;52.788;41.368;2023-01-26T04:37:37;100470.91;;;-9.30;53.42
65384;BME280;51986;52.788;41.368;2023-01-26T04:40:06;100449.53;;;-9.40;53.42
65384;BME280;51986;52.788;41.368;2023-01-26T04:42:35;100468.88;;;-9.28;52.99
65384;BME280;51986;52.788;41.368;2023-01-26T04:45:04;100465.03;;;-9.13;53.39
65384;BME280;51986;52.788;41.368;2023-01-26T04:47:31;100461.94;;;-9.15;52.48
65384;BME280;51986;52.788;41.368;2023-01-26T04:49:58;100458.00;;;-9.06;52.64
65384;BME280;51986;52.788;41.368;2023-01-26T04:52:25;100460.84;;;-9.19;52.98
65384;BME280;51986;52.788;41.368;2023-01-26T04:54:53;100471.06;;;-9.19;52.78
65384;BME280;51986;52.788;41.368;2023-01-26T04:57:20;100469.38;;;-9.14;52.48
65384;BME280;51986;52.788;41.368;2023-01-26T04:59:49;100475.88;;;-9.23;52.59
65384;BME280;51986;52.788;41.368;2023-01-26T05:02:18;100439.47;;;-9.30;52.07
65384;BME280;51986;52.788;41.368;2023-01-26T05:04:45;100475.13;;;-9.07;52.29
65384;BME280;51986;52.788;41.368;2023-01-26T05:07:13;100470.84;;;-9.01;51.87
65384;BME280;51986;52.788;41.368;2023-01-26T05:09:40;100473.88;;;-8.87;51.60
65384;BME280;51986;52.788;41.368;2023-01-26T05:12:42;100490.69;;;-8.91;51.56
65384;BME280;51986;52.788;41.368;2023-01-26T05:15:29;100476.34;;;-8.92;51.79
65384;BME280;51986;52.788;41.368;2023-01-26T05:18:31;100505.63;;;-8.83;51.39
65384;BME280;51986;52.788;41.368;2023-01-26T05:21:16;100480.66;;;-8.93;51.49
65384;BME280;51986;52.788;41.368;2023-01-26T05:23:47;100458.53;;;-8.87;51.81
65384;BME280;51986;52.788;41.368;2023-01-26T05:26:39;100470.38;;;-8.98;51.85
65384;BME280;51986;52.788;41.368;2023-01-26T05:29:16;100461.09;;;-8.87;50.95
65384;BME280;51986;52.788;41.368;2023-01-26T05:31:44;100471.53;;;-8.89;51.59
65384;BME280;51986;52.788;41.368;2023-01-26T05:34:11;100488.88;;;-8.74;51.31
65384;BME280;51986;52.788;41.368;2023-01-26T05:36:39;100447.34;;;-8.81;51.25
65384;BME280;51986;52.788;41.368;2023-01-26T05:39:07;100472.00;;;-8.75;51.39
65384;BME280;51986;52.788;41.368;2023-01-26T05:41:34;100451.25;;;-8.57;51.20
65384;BME280;51986;52.788;41.368;2023-01-26T05:44:28;100452.72;;;-8.83;51.34
65384;BME280;51986;52.788;41.368;2023-01-26T05:47:10;100467.31;;;-8.61;51.16
65384;BME280;51986;52.788;41.368;2023-01-26T05:49:38;100479.81;;;-8.65;50.73
65384;BME280;51986;52.788;41.368;2023-01-26T05:52:09;100462.59;;;-8.69;51.17
65384;BME280;51986;52.788;41.368;2023-01-26T05:54:39;100457.56;;;-8.64;51.37
65384;BME280;51986;52.788;41.368;2023-01-26T05:57:07;100458.94;;;-8.57;51.20
65384;BME280;51986;52.788;41.368;2023-01-26T05:59:38;100457.88;;;-8.61;51.32
65384;BME280;51986;52.788;41.368;2023-01-26T06:02:06;100470.66;;;-8.61;51.16
65384;BME280;51986;52.788;41.368;2023-01-26T06:04:34;100451.84;;;-8.50;50.98
65384;BME280;51986;52.788;41.368;2023-01-26T06:07:02;100449.59;;;-8.46;50.50
65384;BME280;51986;52.788;41.368;2023-01-26T06:09:35;100452.06;;;-8.34;51.01
65384;BME280;51986;52.788;41.368;2023-01-26T06:12:17;100446.97;;;-8.51;50.94
65384;BME280;51986;52.788;41.368;2023-01-26T06:15:05;100453.97;;;-8.03;50.04
65384;BME280;51986;52.788;41.368;2023-01-26T06:17:39;100447.91;;;-7.42;47.84
65384;BME280;51986;52.788;41.368;2023-01-26T06:20:08;100462.31;;;-7.63;48.69
65384;BME280;51986;52.788;41.368;2023-01-26T06:22:36;100463.66;;;-7.83;48.39
65384;BME280;51986;52.788;41.368;2023-01-26T06:25:04;100444.53;;;-7.97;49.08
65384;BME280;51986;52.788;41.368;2023-01-26T06:27:31;100453.97;;;-8.03;49.27
65384;BME280;51986;52.788;41.368;2023-01-26T06:30:02;100453.69;;;-7.79;49.03
65384;BME280;51986;52.788;41.368;2023-01-26T06:32:29;100467.69;;;-7.65;48.39
65384;BME280;51986;52.788;41.368;2023-01-26T06:34:57;100446.56;;;-7.77;48.96
65384;BME280;51986;52.788;41.368;2023-01-26T06:37:24;100405.13;;;-7.69;48.31
65384;BME280;51986;52.788;41.368;2023-01-26T06:39:52;100448.53;;;-7.84;48.44
65384;BME280;51986;52.788;41.368;2023-01-26T06:42:19;100399.56;;;-7.88;48.98
65384;BME280;51986;52.788;41.368;2023-01-26T06:44:46;100427.34;;;-8.02;49.11
65384;BME280;51986;52.788;41.368;2023-01-26T06:47:13;100429.97;;;-7.97;49.33
65384;BME280;51986;52.788;41.368;2023-01-26T06:49:40;100419.53;;;-7.63;48.93
65384;BME280;51986;52.788;41.368;2023-01-26T06:54:50;100440.09;;;-7.58;49.09
65384;BME280;51986;52.788;41.368;2023-01-26T06:57:40;100402.84;;;-7.33;48.31
65384;BME280;51986;52.788;41.368;2023-01-26T07:00:30;100402.28;;;-7.35;48.23
65384;BME280;51986;52.788;41.368;2023-01-26T07:03:12;100416.00;;;-7.20;47.58
65384;BME280;51986;52.788;41.368;2023-01-26T07:05:39;100438.28;;;-7.20;48.19
65384;BME280;51986;52.788;41.368;2023-01-26T07:08:06;100450.81;;;-6.92;48.36
65384;BME280;51986;52.788;41.368;2023-01-26T07:10:36;100439.41;;;-7.06;47.80
65384;BME280;51986;52.788;41.368;2023-01-26T07:13:04;100426.56;;;-7.11;48.46
65384;BME280;51986;52.788;41.368;2023-01-26T07:15:32;100433.34;;;-7.00;47.74
65384;BME280;51986;52.788;41.368;2023-01-26T07:17:59;100441.03;;;-7.00;47.65
65384;BME280;51986;52.788;41.368;2023-01-26T07:20:27;100417.13;;;-7.05;48.46
65384;BME280;51986;52.788;41.368;2023-01-26T07:22:54;100434.41;;;-6.90;48.04
65384;BME280;51986;52.788;41.368;2023-01-26T07:25:21;100433.81;;;-7.03;48.42
65384;BME280;51986;52.788;41.368;2023-01-26T07:27:54;100410.75;;;-6.98;47.91
65384;BME280;51986;52.788;41.368;2023-01-26T07:30:21;100425.13;;;-6.97;47.71
65384;BME280;51986;52.788;41.368;2023-01-26T07:32:48;100425.31;;;-6.66;47.74
65384;BME280;51986;52.788;41.368;2023-01-26T07:35:15;100431.13;;;-6.81;47.76
65384;BME280;51986;52.788;41.368;2023-01-26T07:37:42;100428.84;;;-6.77;48.23
65384;BME280;51986;52.788;41.368;2023-01-26T07:40:09;100426.38;;;-6.62;47.76
65384;BME280;51986;52.788;41.368;2023-01-26T07:42:37;100435.94;;;-6.42;47.49
65384;BME280;51986;52.788;41.368;2023-01-26T07:45:16;100452.63;;;-6.40;47.05
65384;BME280;51986;52.788;41.368;2023-01-26T07:47:43;100446.31;;;-6.17;47.13
65384;BME280;51986;52.788;41.368;2023-01-26T07:50:10;100466.84;;;-6.22;47.15
65384;BME280;51986;52.788;41.368;2023-01-26T07:52:38;100438.41;;;-6.05;47.04
65384;BME280;51986;52.788;41.368;2023-01-26T07:55:05;100449.22;;;-5.98;47.88
65384;BME280;51986;52.788;41.368;2023-01-26T07:57:33;100437.97;;;-5.76;46.61
65384;BME280;51986;52.788;41.368;2023-01-26T07:59:59;100446.44;;;-5.81;46.52
65384;BME280;51986;52.788;41.368;2023-01-26T08:02:37;100419.22;;;-5.46;46.12
65384;BME280;51986;52.788;41.368;2023-01-26T08:05:04;100412.53;;;-5.27;45.63
65384;BME280;51986;52.788;41.368;2023-01-26T08:07:31;100432.34;;;-5.17;45.61
65384;BME280;51986;52.788;41.368;2023-01-26T08:09:58;100437.47;;;-5.02;44.61
65384;BME280;51986;52.788;41.368;2023-01-26T08:12:25;100413.53;;;-5.07;45.64
65384;BME280;51986;52.788;41.368;2023-01-26T08:14:52;100434.13;;;-5.18;46.23
65384;BME280;51986;52.788;41.368;2023-01-26T08:17:19;100423.78;;;-4.77;45.03
65384;BME280;51986;52.788;41.368;2023-01-26T08:19:46;100402.63;;;-4.64;44.34
65384;BME280;51986;52.788;41.368;2023-01-26T08:22:13;100406.50;;;-4.61;44.01
65384;BME280;51986;52.788;41.368;2023-01-26T08:24:40;100430.66;;;-4.52;44.27
65384;BME280;51986;52.788;41.368;2023-01-26T08:27:07;100410.69;;;-4.16;43.90
65384;BME280;51986;52.788;41.368;2023-01-26T08:29:34;100369.88;;;-4.48;44.35
65384;BME280;51986;52.788;41.368;2023-01-26T08:32:01;100382.25;;;-4.50;44.73
65384;BME280;51986;52.788;41.368;2023-01-26T08:34:29;100408.41;;;-4.22;44.26
65384;BME280;51986;52.788;41.368;2023-01-26T08:36:55;100365.63;;;-4.18;43.59
65384;BME280;51986;52.788;41.368;2023-01-26T08:39:22;100409.53;;;-3.94;43.89
65384;BME280;51986;52.788;41.368;2023-01-26T08:41:49;100417.53;;;-3.96;44.35
65384;BME280;51986;52.788;41.368;2023-01-26T08:44:16;100366.38;;;-3.78;43.38
65384;BME280;51986;52.788;41.368;2023-01-26T08:46:43;100413.13;;;-3.51;43.53
65384;BME280;51986;52.788;41.368;2023-01-26T08:49:10;100392.84;;;-3.68;42.89
65384;BME280;51986;52.788;41.368;2023-01-26T08:51:37;100387.69;;;-3.68;43.92
65384;BME280;51986;52.788;41.368;2023-01-26T08:54:05;100374.66;;;-3.82;43.51
65384;BME280;51986;52.788;41.368;2023-01-26T08:56:32;100372.72;;;-3.66;43.56
65384;BME280;51986;52.788;41.368;2023-01-26T08:58:59;100392.78;;;-3.58;43.30
65384;BME280;51986;52.788;41.368;2023-01-26T09:01:27;100379.84;;;-3.52;43.19
65384;BME280;51986;52.788;41.368;2023-01-26T09:03:54;100381.09;;;-3.45;43.20
65384;BME280;51986;52.788;41.368;2023-01-26T09:06:21;100368.75;;;-3.24;43.09
65384;BME280;51986;52.788;41.368;2023-01-26T09:08:48;100385.38;;;-3.35;43.09
65384;BME280;51986;52.788;41.368;2023-01-26T09:11:15;100367.13;;;-3.44;43.29
65384;BME280;51986;52.788;41.368;2023-01-26T09:13:42;100377.94;;;-3.37;43.88
65384;BME280;51986;52.788;41.368;2023-01-26T09:16:14;100358.16;;;-3.46;42.92
65384;BME280;51986;52.788;41.368;2023-01-26T09:18:44;100368.81;;;-3.29;44.33
65384;BME280;51986;52.788;41.368;2023-01-26T09:21:14;100370.03;;;-3.21;43.75
65384;BME280;51986;52.788;41.368;2023-01-26T09:23:41;100379.50;;;-3.12;43.28
65384;BME280;51986;52.788;41.368;2023-01-26T09:26:08;100369.03;;;-3.25;44.42
65384;BME280;51986;52.788;41.368;2023-01-26T09:28:35;100353.03;;;-2.98;43.95
65384;BME280;51986;52.788;41.368;2023-01-26T09:31:07;100351.53;;;-3.05;44.03
65384;BME280;51986;52.788;41.368;2023-01-26T09:33:35;100353.47;;;-2.91;44.45
65384;BME280;51986;52.788;41.368;2023-01-26T09:36:11;100360.81;;;-2.80;43.57
65384;BME280;51986;52.788;41.368;2023-01-26T09:38:38;100344.44;;;-2.94;43.60
65384;BME280;51986;52.788;41.368;2023-01-26T09:44:08;100327.69;;;-2.72;44.36
65384;BME280;51986;52.788;41.368;2023-01-26T09:46:51;100324.25;;;-2.87;44.66
65384;BME280;51986;52.788;41.368;2023-01-26T09:49:24;100310.28;;;-2.86;44.02
65384;BME280;51986;52.788;41.368;2023-01-26T09:52:16;100319.50;;;-2.80;44.79
65384;BME280;51986;52.788;41.368;2023-01-26T09:54:52;100325.66;;;-2.99;44.36
65384;BME280;51986;52.788;41.368;2023-01-26T09:57:25;100300.16;;;-2.82;44.56
65384;BME280;51986;52.788;41.368;2023-01-26T10:00:40;100332.94;;;-2.59;44.32
65384;BME280;51986;52.788;41.368;2023-01-26T10:03:08;100311.91;;;-2.52;44.29
65384;BME280;51986;52.788;41.368;2023-01-26T10:05:58;100285.81;;;-2.50;44.14
65384;BME280;51986;52.788;41.368;2023-01-26T10:09:21;100306.59;;;-2.23;43.87
65384;BME280;51986;52.788;41.368;2023-01-26T10:11:59;100299.38;;;-2.40;44.36
65384;BME280;51986;52.788;41.368;2023-01-26T10:14:36;100308.44;;;-2.23;44.48
65384;BME280;51986;52.788;41.368;2023-01-26T10:17:13;100309.41;;;-2.19;43.79
65384;BME280;51986;52.788;41.368;2023-01-26T10:19:49;100299.16;;;-2.24;44.22
65384;BME280;51986;52.788;41.368;2023-01-26T10:22:29;100298.59;;;-2.21;44.09
65384;BME280;51986;52.788;41.368;2023-01-26T10:24:58;100308.94;;;-1.89;43.46
65384;BME280;51986;52.788;41.368;2023-01-26T10:27:27;100269.22;;;-1.79;43.42
65384;BME280;51986;52.788;41.368;2023-01-26T10:29:54;100290.41;;;-1.77;43.52
65384;BME280;51986;52.788;41.368;2023-01-26T10:32:21;100284.16;;;-1.76;43.37
65384;BME280;51986;52.788;41.368;2023-01-26T10:34:49;100285.91;;;-1.71;44.15
65384;BME280;51986;52.788;41.368;2023-01-26T10:37:22;100264.56;;;-1.49;43.60
65384;BME280;51986;52.788;41.368;2023-01-26T10:40:03;100274.06;;;-1.45;43.31
65384;BME280;51986;52.788;41.368;2023-01-26T10:42:32;100266.97;;;-1.26;42.62
65384;BME280;51986;52.788;41.368;2023-01-26T10:45:02;100261.81;;;-1.26;42.41
65384;BME280;51986;52.788;41.368;2023-01-26T10:47:30;100245.69;;;-1.22;42.88
65384;BME280;51986;52.788;41.368;2023-01-26T10:50:21;100266.53;;;-0.78;42.25
65384;BME280;51986;52.788;41.368;2023-01-26T10:53:03;100275.94;;;-0.82;42.20
65384;BME280;51986;52.788;41.368;2023-01-26T10:55:32;100271.63;;;-0.50;41.79
65384;BME280;51986;52.788;41.368;2023-01-26T10:58:00;100294.84;;;-0.45;41.54
65384;BME280;51986;52.788;41.368;2023-01-26T11:00:29;100259.81;;;-0.79;41.89
65384;BME280;51986;52.788;41.368;2023-01-26T11:05:30;100288.38;;;-0.56;42.62
65384;BME280;51986;52.788;41.368;2023-01-26T11:07:57;100268.16;;;-0.68;42.57
65384;BME280;51986;52.788;41.368;2023-01-26T11:10:36;100270.91;;;-0.64;42.17
65384;BME280;51986;52.788;41.368;2023-01-26T11:13:16;100275.94;;;-0.82;42.32
65384;BME280;51986;52.788;41.368;2023-01-26T11:16:10;100259.16;;;-0.84;42.45
65384;BME280;51986;52.788;41.368;2023-01-26T11:18:50;100280.34;;;-0.68;41.97
65384;BME280;51986;52.788;41.368;2023-01-26T11:21:41;100272.28;;;-0.67;42.41
65384;BME280;51986;52.788;41.368;2023-01-26T11:24:25;100271.41;;;-0.40;41.85
65384;BME280;51986;52.788;41.368;2023-01-26T11:57:24;100227.84;;;-1.24;43.76
65384;BME280;51986;52.788;41.368;2023-01-26T12:02:36;100249.81;;;-1.35;44.46
65384;BME280;51986;52.788;41.368;2023-01-26T12:05:18;100252.78;;;-1.14;44.05
65384;BME280;51986;52.788;41.368;2023-01-26T12:10:20;100244.06;;;-1.32;44.43
65384;BME280;51986;52.788;41.368;2023-01-26T12:12:54;100245.88;;;-1.33;43.65
65384;BME280;51986;52.788;41.368;2023-01-26T12:15:28;100250.50;;;-1.30;44.25
65384;BME280;51986;52.788;41.368;2023-01-26T12:20:48;100255.94;;;-1.31;44.13
65384;BME280;51986;52.788;41.368;2023-01-26T12:23:46;100247.22;;;-1.49;44.71
65384;BME280;51986;52.788;41.368;2023-01-26T12:26:20;100248.38;;;-1.41;44.80
65384;BME280;51986;52.788;41.368;2023-01-26T12:31:43;100236.88;;;-1.35;43.89
65384;BME280;51986;52.788;41.368;2023-01-26T12:34:12;100229.47;;;-1.42;44.67
65384;BME280;51986;52.788;41.368;2023-01-26T12:37:08;100252.94;;;-1.66;44.89
65384;BME280;51986;52.788;41.368;2023-01-26T12:39:50;100229.78;;;-1.43;44.52
65384;BME280;51986;52.788;41.368;2023-01-26T12:42:56;100237.03;;;-1.04;44.07
65384;BME280;51986;52.788;41.368;2023-01-26T12:45:33;100236.69;;;-1.39;44.22
65384;BME280;51986;52.788;41.368;2023-01-26T12:48:14;100230.53;;;-1.57;45.07
65384;BME280;51986;52.788;41.368;2023-01-26T12:51:14;100229.41;;;-1.64;45.54
65384;BME280;51986;52.788;41.368;2023-01-26T12:53:55;100235.03;;;-1.62;44.84
65384;BME280;51986;52.788;41.368;2023-01-26T12:56:37;100241.53;;;-1.92;46.48
65384;BME280;51986;52.788;41.368;2023-01-26T12:59:15;100245.44;;;-1.95;45.63
65384;BME280;51986;52.788;41.368;2023-01-26T13:04:49;100244.78;;;-2.19;46.79
65384;BME280;51986;52.788;41.368;2023-01-26T13:07:38;100255.97;;;-2.24;46.71
65384;BME280;51986;52.788;41.368;2023-01-26T13:15:44;100248.69;;;-2.73;49.36
65384;BME280;51986;52.788;41.368;2023-01-26T13:18:16;100236.81;;;-2.74;48.46
65384;BME280;51986;52.788;41.368;2023-01-26T13:20:45;100233.13;;;-2.68;49.03
65384;BME280;51986;52.788;41.368;2023-01-26T13:26:14;100229.06;;;-2.74;49.12
65384;BME280;51986;52.788;41.368;2023-01-26T13:28:43;100223.91;;;-2.93;49.79
65384;BME280;51986;52.788;41.368;2023-01-26T13:31:11;100232.41;;;-2.93;49.84
65384;BME280;51986;52.788;41.368;2023-01-26T13:33:40;100191.16;;;-3.17;49.83
65384;BME280;51986;52.788;41.368;2023-01-26T13:36:16;100237.09;;;-3.19;50.96
65384;BME280;51986;52.788;41.368;2023-01-26T13:38:59;100194.88;;;-3.28;50.89
65384;BME280;51986;52.788;41.368;2023-01-26T13:41:28;100222.25;;;-3.51;51.74
65384;BME280;51986;52.788;41.368;2023-01-26T13:44:04;100225.75;;;-3.42;51.80
65384;BME280;51986;52.788;41.368;2023-01-26T13:46:39;100205.34;;;-3.62;51.87
65384;BME280;51986;52.788;41.368;2023-01-26T13:49:37;100205.63;;;-3.64;52.79
65384;BME280;51986;52.788;41.368;2023-01-26T13:52:24;100206.06;;;-3.86;53.47
65384;BME280;51986;52.788;41.368;2023-01-26T13:54:53;100201.69;;;-3.85;52.68
65384;BME280;51986;52.788;41.368;2023-01-26T13:57:24;100207.50;;;-3.98;53.63
65384;BME280;51986;52.788;41.368;2023-01-26T13:59:59;100201.78;;;-3.95;53.83
65384;BME280;51986;52.788;41.368;2023-01-26T14:02:33;100210.97;;;-3.84;53.48
65384;BME280;51986;52.788;41.368;2023-01-26T14:05:01;100175.34;;;-4.06;52.96
65384;BME280;51986;52.788;41.368;2023-01-26T14:09:59;100186.22;;;-4.14;53.97
65384;BME280;51986;52.788;41.368;2023-01-26T14:12:42;100185.84;;;-4.26;53.61
65384;BME280;51986;52.788;41.368;2023-01-26T14:15:24;100195.28;;;-4.17;53.66